Time;durP1;ratioP1;P1;durP2;ratioP2;P2;SDS_P1;SDS_P2;PMS_P1;PMS_P2;Temp;Humidity;BMP_temperature;BMP_pressure;BME280_temperature;BME280_humidity;BME280_pressure;Samples;Min_cycle;Max_cycle;Signal;HPM_P1;HPM_P2
2024/04/11 00:00:48;;;;;;;10.13;1.63;;;8.80;99.90;;;;;;5427925;26;20007;-75
2024/04/11 00:03:14;;;;;;;7.15;1.88;;;8.70;99.90;;;;;;5433937;26;20000;-76
2024/04/11 00:05:40;;;;;;;3.60;1.50;;;8.80;99.90;;;;;;5430978;26;20014;-76
2024/04/11 00:08:06;;;;;;;5.43;1.23;;;8.80;99.90;;;;;;5402721;26;20003;-77
2024/04/11 00:10:32;;;;;;;5.32;1.23;;;8.90;99.90;;;;;;5427782;26;20392;-76
2024/04/11 00:12:57;;;;;;;6.15;1.67;;;8.90;99.90;;;;;;5431730;26;20003;-76
2024/04/11 00:15:23;;;;;;;4.60;1.25;;;8.90;99.90;;;;;;5423787;26;20003;-76
2024/04/11 00:17:48;;;;;;;6.40;1.85;;;9.00;99.90;;;;;;5426278;26;19999;-76
2024/04/11 00:20:14;;;;;;;4.45;1.95;;;9.00;99.90;;;;;;5435777;26;20018;-77
2024/04/11 00:22:39;;;;;;;5.40;1.40;;;9.00;99.90;;;;;;5431128;26;20014;-76
2024/04/11 00:25:05;;;;;;;9.57;2.42;;;9.10;99.90;;;;;;5430969;26;20736;-76
2024/04/11 00:27:31;;;;;;;7.95;1.60;;;9.00;99.90;;;;;;5431624;26;20482;-75
2024/04/11 00:29:57;;;;;;;3.78;1.23;;;9.10;99.90;;;;;;5422501;26;20524;-76
2024/04/11 00:32:23;;;;;;;3.80;1.50;;;9.10;99.90;;;;;;5429599;26;20011;-75
2024/04/11 00:34:48;;;;;;;3.85;1.30;;;9.10;99.90;;;;;;5434693;26;19999;-76
2024/04/11 00:37:15;;;;;;;2.60;0.77;;;9.20;99.90;;;;;;5431156;26;20076;-76
2024/04/11 00:39:41;;;;;;;4.70;1.30;;;9.20;99.80;;;;;;5417293;26;20027;-77
2024/04/11 00:42:10;;;;;;;8.23;1.77;;;9.20;99.70;;;;;;5384777;26;20455;-77
2024/04/11 00:44:37;;;;;;;5.80;1.70;;;9.20;99.80;;;;;;5402088;26;20003;-76
2024/04/11 00:47:08;;;;;;;5.82;1.58;;;9.20;99.80;;;;;;5378254;26;20003;-76
2024/04/11 00:49:34;;;;;;;4.22;1.20;;;9.20;99.70;;;;;;5403264;26;19999;-76
2024/04/11 00:52:00;;;;;;;4.93;1.25;;;9.20;99.80;;;;;;5437920;26;20010;-76
2024/04/11 00:54:31;;;;;;;4.88;1.40;;;9.20;99.70;;;;;;5435858;26;20013;-77
2024/04/11 00:56:59;;;;;;;4.72;1.77;;;9.30;99.60;;;;;;5377568;26;20011;-76
2024/04/11 00:59:24;;;;;;;5.55;1.83;;;9.40;99.60;;;;;;5429426;26;20004;-75
2024/04/11 01:01:51;;;;;;;4.63;1.50;;;9.30;99.50;;;;;;5442535;26;20007;-75
2024/04/11 01:04:16;;;;;;;8.20;1.40;;;9.30;99.40;;;;;;5404950;26;20003;-75
2024/04/11 01:09:31;;;;;;;2.35;1.15;;;9.30;99.40;;;;;;5430532;26;20017;-76
2024/04/11 01:11:56;;;;;;;5.40;1.85;;;9.30;99.40;;;;;;5438855;26;20009;-76
2024/04/11 01:14:23;;;;;;;6.22;2.03;;;9.30;99.30;;;;;;5430183;26;20034;-76
2024/04/11 01:16:49;;;;;;;6.43;1.67;;;9.30;99.20;;;;;;5432425;26;20004;-76
2024/04/11 01:19:14;;;;;;;3.30;1.00;;;9.30;99.10;;;;;;5404175;26;20007;-76
2024/04/11 01:21:41;;;;;;;2.55;0.80;;;9.20;99.20;;;;;;5433675;26;20014;-76
2024/04/11 01:24:07;;;;;;;6.45;1.40;;;9.20;99.20;;;;;;5411423;26;20007;-77
2024/04/11 01:26:35;;;;;;;1.45;1.05;;;9.30;99.30;;;;;;5431420;26;19999;-76
2024/04/11 01:29:01;;;;;;;8.13;1.38;;;9.30;99.20;;;;;;5435902;26;20452;-76
2024/04/11 01:31:28;;;;;;;4.28;1.60;;;9.40;99.10;;;;;;5439860;26;20452;-76
2024/04/11 01:33:54;;;;;;;5.32;1.38;;;9.20;99.10;;;;;;5424316;26;20437;-76
2024/04/11 01:36:20;;;;;;;2.88;1.25;;;9.30;99.00;;;;;;5431014;26;20443;-76
2024/04/11 01:38:45;;;;;;;2.92;1.00;;;9.30;98.90;;;;;;5426284;26;19999;-76
2024/04/11 01:41:11;;;;;;;4.30;1.13;;;9.30;98.80;;;;;;5430184;26;19998;-76
2024/04/11 01:43:37;;;;;;;5.88;1.15;;;9.40;98.80;;;;;;5429587;26;20050;-76
2024/04/11 01:46:02;;;;;;;4.47;1.40;;;9.40;98.70;;;;;;5432628;26;20096;-76
2024/04/11 01:48:28;;;;;;;1.90;0.80;;;9.30;98.60;;;;;;5425330;26;20025;-76
2024/04/11 01:50:54;;;;;;;6.30;1.25;;;9.30;98.50;;;;;;5435408;26;20351;-77
2024/04/11 01:53:19;;;;;;;3.13;0.63;;;9.40;98.40;;;;;;5430825;26;20442;-77
2024/04/11 01:55:47;;;;;;;16.85;2.15;;;9.40;98.30;;;;;;5435760;26;20011;-76
2024/04/11 01:58:18;;;;;;;2.45;0.85;;;9.40;98.40;;;;;;5426248;26;20436;-76
2024/04/11 02:00:44;;;;;;;5.22;1.27;;;9.40;98.10;;;;;;5437921;26;20007;-76
2024/04/11 02:03:10;;;;;;;2.80;1.20;;;9.40;98.10;;;;;;5428578;26;20013;-77
2024/04/11 02:05:36;;;;;;;1.83;0.90;;;9.40;98.10;;;;;;5437300;26;20080;-76
2024/04/11 02:08:02;;;;;;;3.75;1.30;;;9.30;98.00;;;;;;5428927;26;19999;-77
2024/04/11 02:10:30;;;;;;;6.80;1.30;;;9.40;97.90;;;;;;5432090;26;20455;-76
2024/04/11 02:12:57;;;;;;;5.60;1.20;;;9.40;97.90;;;;;;5429980;26;20443;-77
2024/04/11 02:15:24;;;;;;;2.45;1.02;;;9.40;97.70;;;;;;5431368;26;20407;-76
2024/04/11 02:17:52;;;;;;;3.05;0.60;;;9.40;97.50;;;;;;5405227;26;20621;-77
2024/04/11 02:20:18;;;;;;;1.13;0.40;;;9.30;97.50;;;;;;5376978;26;20015;-76
2024/04/11 02:22:46;;;;;;;0.43;0.28;;;9.40;97.50;;;;;;5390458;26;20031;-76
2024/04/11 02:25:13;;;;;;;5.43;1.20;;;9.30;97.30;;;;;;5428844;26;20459;-76
2024/04/11 02:27:39;;;;;;;4.90;1.35;;;9.40;97.30;;;;;;5427744;26;19994;-76
2024/04/11 02:30:09;;;;;;;3.13;0.80;;;9.50;97.20;;;;;;5434756;26;20015;-76
2024/04/11 02:32:40;;;;;;;3.28;0.85;;;9.40;97.10;;;;;;5426240;26;20067;-78
2024/04/11 02:35:06;;;;;;;3.65;0.85;;;9.40;97.10;;;;;;5371379;26;20011;-76
2024/04/11 02:37:31;;;;;;;3.20;0.65;;;9.40;97.10;;;;;;5439431;26;20501;-76
2024/04/11 02:39:57;;;;;;;3.47;0.98;;;9.40;97.20;;;;;;5434965;26;20003;-76
2024/04/11 02:42:23;;;;;;;4.78;1.23;;;9.50;97.40;;;;;;5430200;26;19999;-77
2024/04/11 02:44:51;;;;;;;1.70;0.70;;;9.40;97.10;;;;;;5397852;26;19998;-77
2024/04/11 02:47:16;;;;;;;2.40;0.82;;;9.40;97.00;;;;;;5422292;26;20007;-76
2024/04/11 02:49:42;;;;;;;3.10;0.95;;;9.50;96.80;;;;;;5428583;26;20164;-76
2024/04/11 02:52:07;;;;;;;2.60;0.85;;;9.50;96.80;;;;;;5406517;26;20010;-76
2024/04/11 02:54:34;;;;;;;5.97;0.80;;;9.60;96.70;;;;;;5427535;26;20018;-76
2024/04/11 02:57:00;;;;;;;3.90;1.35;;;9.60;96.90;;;;;;5402150;26;20000;-76
2024/04/11 02:59:25;;;;;;;1.75;0.90;;;9.60;96.40;;;;;;5434668;26;20335;-76
2024/04/11 03:01:51;;;;;;;2.70;0.88;;;9.60;96.40;;;;;;5409093;26;20013;-76
2024/04/11 03:04:16;;;;;;;7.63;1.30;;;9.60;96.40;;;;;;5401243;26;20061;-77
2024/04/11 03:06:43;;;;;;;6.35;1.83;;;9.60;96.30;;;;;;5425196;26;20003;-76
2024/04/11 03:09:09;;;;;;;3.80;1.05;;;9.70;96.50;;;;;;5405479;26;20557;-76
2024/04/11 03:11:35;;;;;;;3.05;0.80;;;9.70;96.40;;;;;;5436490;26;20014;-76
2024/04/11 03:14:01;;;;;;;2.80;0.85;;;9.70;96.00;;;;;;5433088;26;20013;-76
2024/04/11 03:16:30;;;;;;;3.20;0.70;;;9.80;96.30;;;;;;5401864;26;20011;-75
2024/04/11 03:18:56;;;;;;;3.92;1.00;;;9.80;96.00;;;;;;5399239;26;20874;-76
2024/04/11 03:21:21;;;;;;;2.70;1.02;;;9.80;96.00;;;;;;5396899;26;20710;-77
2024/04/11 03:23:50;;;;;;;4.85;0.88;;;9.80;95.80;;;;;;5404020;26;20011;-76
2024/04/11 03:26:16;;;;;;;4.43;0.80;;;9.80;95.70;;;;;;5407537;26;20455;-75
2024/04/11 03:28:44;;;;;;;4.05;0.90;;;9.80;95.60;;;;;;5432392;26;19998;-75
2024/04/11 03:31:13;;;;;;;4.07;1.10;;;9.90;95.70;;;;;;5430317;26;20010;-75
2024/04/11 03:33:39;;;;;;;2.42;0.73;;;9.90;95.70;;;;;;5401943;26;20457;-76
2024/04/11 03:36:06;;;;;;;4.85;1.10;;;9.90;95.90;;;;;;5405828;26;20018;-75
2024/04/11 03:38:32;;;;;;;8.07;1.58;;;9.90;95.60;;;;;;5424281;26;19995;-75
2024/04/11 03:41:02;;;;;;;4.00;2.03;;;9.90;95.60;;;;;;5429991;26;20003;-76
2024/04/11 03:43:34;;;;;;;4.57;1.50;;;10.00;94.90;;;;;;5416315;26;20003;-77
2024/04/11 03:46:09;;;;;;;4.63;1.10;;;10.00;94.90;;;;;;5426822;26;20483;-77
2024/04/11 03:48:35;;;;;;;3.65;1.42;;;10.00;95.00;;;;;;5427973;26;20450;-76
2024/04/11 03:51:19;;;;;;;2.70;1.00;;;10.10;94.90;;;;;;5426819;26;19999;-76
2024/04/11 03:53:45;;;;;;;4.93;0.88;;;10.10;94.90;;;;;;5434307;26;20004;-76
2024/04/11 03:56:14;;;;;;;7.72;1.00;;;10.00;94.90;;;;;;5435566;26;20018;-75
2024/04/11 03:58:40;;;;;;;2.22;0.75;;;10.10;94.90;;;;;;5417200;26;20004;-76
2024/04/11 04:01:12;;;;;;;8.27;1.23;;;10.10;94.70;;;;;;5398803;26;20364;-76
2024/04/11 04:03:41;;;;;;;4.43;1.40;;;10.10;94.80;;;;;;5403071;26;20011;-76
2024/04/11 04:06:08;;;;;;;8.07;1.65;;;10.20;94.70;;;;;;5426928;26;19999;-76
2024/04/11 04:08:34;;;;;;;5.50;1.13;;;10.20;94.70;;;;;;5427431;26;19999;-77
2024/04/11 04:11:00;;;;;;;4.20;1.48;;;10.20;94.40;;;;;;5424829;26;20004;-76
2024/04/11 04:13:26;;;;;;;3.13;0.85;;;10.20;94.50;;;;;;5410004;26;20010;-76
2024/04/11 04:15:54;;;;;;;3.75;0.90;;;10.20;94.30;;;;;;5436143;26;20079;-76
2024/04/11 04:18:20;;;;;;;4.38;1.20;;;10.30;94.40;;;;;;5427243;26;20348;-76
2024/04/11 04:20:53;;;;;;;5.38;1.63;;;10.30;94.40;;;;;;5409186;26;20019;-76
2024/04/11 04:23:18;;;;;;;3.30;1.23;;;10.30;94.30;;;;;;5394235;26;20035;-76
2024/04/11 04:25:47;;;;;;;4.60;1.20;;;10.30;94.40;;;;;;5435247;26;20015;-76
2024/04/11 04:28:18;;;;;;;3.30;1.25;;;10.30;94.60;;;;;;5438099;26;20008;-76
2024/04/11 04:30:44;;;;;;;8.10;1.10;;;10.30;94.50;;;;;;5433100;26;20003;-76
2024/04/11 04:33:11;;;;;;;2.72;1.13;;;10.40;94.60;;;;;;5431651;26;19999;-76
2024/04/11 04:35:36;;;;;;;7.30;1.25;;;10.40;94.60;;;;;;5428603;26;20003;-76
2024/04/11 04:38:03;;;;;;;2.15;0.45;;;10.40;94.60;;;;;;5410915;26;20050;-75
2024/04/11 04:40:29;;;;;;;4.93;1.27;;;10.40;94.40;;;;;;5426849;26;19995;-76
2024/04/11 04:42:56;;;;;;;8.73;1.33;;;10.40;94.30;;;;;;5421147;26;20011;-76
2024/04/11 04:45:21;;;;;;;3.95;0.85;;;10.40;94.20;;;;;;5403661;26;20000;-77
2024/04/11 04:47:47;;;;;;;2.65;0.60;;;10.50;94.30;;;;;;5441357;26;20045;-76
2024/04/11 04:50:13;;;;;;;6.68;1.00;;;10.50;94.30;;;;;;5436897;26;19995;-76
2024/04/11 04:52:41;;;;;;;7.70;0.90;;;10.50;94.20;;;;;;5429245;26;20009;-77
2024/04/11 04:55:09;;;;;;;0.85;0.55;;;10.50;94.30;;;;;;5379368;26;19999;-77
2024/04/11 04:57:36;;;;;;;3.67;0.82;;;10.50;94.10;;;;;;5436949;26;20745;-77
2024/04/11 05:00:03;;;;;;;1.98;0.70;;;10.50;94.00;;;;;;5434273;26;20003;-76
2024/04/11 05:02:29;;;;;;;3.00;1.00;;;10.60;94.00;;;;;;5429582;26;20008;-76
2024/04/11 05:04:55;;;;;;;5.47;1.33;;;10.60;94.10;;;;;;5407221;26;20498;-77
2024/04/11 05:07:21;;;;;;;7.03;1.23;;;10.60;94.00;;;;;;5432629;26;20014;-77
2024/04/11 05:09:46;;;;;;;3.35;0.82;;;10.60;94.10;;;;;;5425211;26;19995;-76
2024/04/11 05:12:12;;;;;;;0.25;0.25;;;10.60;94.00;;;;;;5433521;26;19999;-77
2024/04/11 05:14:42;;;;;;;6.68;0.85;;;10.60;93.90;;;;;;5421839;26;19999;-77
2024/04/11 05:17:08;;;;;;;8.20;1.20;;;10.70;93.80;;;;;;5432517;26;20404;-76
2024/04/11 05:19:34;;;;;;;2.53;0.57;;;10.70;93.80;;;;;;5435516;26;20015;-77
2024/04/11 05:22:00;;;;;;;0.63;0.40;;;10.70;93.80;;;;;;5433369;26;20338;-77
2024/04/11 05:24:26;;;;;;;2.05;0.75;;;10.80;93.80;;;;;;5432725;26;20002;-77
2024/04/11 05:26:51;;;;;;;5.13;1.13;;;10.80;93.60;;;;;;5425348;26;20441;-76
2024/04/11 05:29:18;;;;;;;3.03;0.65;;;10.80;93.70;;;;;;5434826;26;19999;-77
2024/04/11 05:31:45;;;;;;;3.17;0.55;;;10.80;93.60;;;;;;5411790;26;20443;-76
2024/04/11 05:34:13;;;;;;;3.97;0.70;;;10.90;93.60;;;;;;5401862;26;20007;-77
2024/04/11 05:36:41;;;;;;;3.42;0.55;;;10.90;93.60;;;;;;5436099;26;20032;-76
2024/04/11 05:39:08;;;;;;;7.15;1.13;;;10.90;93.60;;;;;;5412039;26;19994;-76
2024/04/11 05:41:34;;;;;;;6.03;1.20;;;11.00;93.60;;;;;;5407586;26;20002;-76
2024/04/11 05:44:01;;;;;;;6.90;0.88;;;11.00;93.70;;;;;;5434140;26;20003;-76
2024/04/11 05:46:27;;;;;;;1.88;0.70;;;11.00;93.60;;;;;;5428724;26;20003;-76
2024/04/11 05:48:53;;;;;;;3.60;0.90;;;11.00;93.50;;;;;;5431061;26;20495;-76
2024/04/11 05:51:20;;;;;;;4.80;1.13;;;11.10;93.40;;;;;;5431472;26;20011;-76
2024/04/11 05:53:46;;;;;;;7.25;1.05;;;11.10;93.40;;;;;;5438742;26;20473;-80
2024/04/11 05:56:15;;;;;;;9.00;0.63;;;11.10;93.60;;;;;;5410182;26;19995;-79
2024/04/11 05:58:42;;;;;;;2.20;0.95;;;11.20;93.60;;;;;;5430911;26;20030;-80
2024/04/11 06:01:13;;;;;;;5.43;0.77;;;11.20;93.50;;;;;;5429361;26;20466;-79
2024/04/11 06:03:59;;;;;;;4.35;1.10;;;11.30;93.40;;;;;;5425583;26;20007;-79
2024/04/11 06:06:25;;;;;;;3.45;0.85;;;11.30;93.30;;;;;;5429523;26;20007;-78
2024/04/11 06:08:50;;;;;;;6.35;1.90;;;11.30;93.50;;;;;;5428175;26;20013;-80
2024/04/11 06:11:19;;;;;;;3.50;0.70;;;11.30;93.30;;;;;;5427953;26;20359;-79
2024/04/11 06:13:48;;;;;;;5.13;0.65;;;11.30;93.30;;;;;;5427663;26;20015;-80
2024/04/11 06:16:16;;;;;;;10.15;1.00;;;11.30;93.30;;;;;;5403367;26;20567;-79
2024/04/11 06:18:43;;;;;;;4.53;0.85;;;11.50;93.20;;;;;;5427562;26;20022;-79
2024/04/11 06:21:11;;;;;;;4.82;1.10;;;11.40;93.20;;;;;;5425849;26;20446;-80
2024/04/11 06:23:37;;;;;;;7.78;0.88;;;11.40;93.20;;;;;;5401288;26;20436;-79
2024/04/11 06:26:02;;;;;;;2.38;0.75;;;11.40;93.20;;;;;;5435148;26;20011;-79
2024/04/11 06:28:28;;;;;;;3.08;0.90;;;11.40;93.20;;;;;;5430439;26;20023;-80
2024/04/11 06:30:54;;;;;;;5.10;1.00;;;11.50;93.30;;;;;;5428828;26;20391;-80
2024/04/11 06:33:21;;;;;;;1.65;0.65;;;11.50;93.30;;;;;;5430720;26;20011;-80
2024/04/11 06:35:51;;;;;;;5.75;0.88;;;11.50;93.30;;;;;;5406305;26;19999;-79
2024/04/11 06:38:17;;;;;;;4.03;0.88;;;11.50;93.10;;;;;;5396386;26;20090;-80
2024/04/11 06:40:47;;;;;;;6.53;0.90;;;11.60;93.20;;;;;;5427290;26;20007;-78
2024/04/11 06:43:16;;;;;;;3.42;0.73;;;11.50;93.30;;;;;;5405514;26;20447;-79
2024/04/11 06:45:45;;;;;;;2.33;0.90;;;11.50;93.30;;;;;;5401463;26;20045;-80
2024/04/11 06:48:10;;;;;;;3.70;0.82;;;11.60;93.30;;;;;;5423029;26;20539;-81
2024/04/11 06:50:36;;;;;;;5.78;1.23;;;11.60;93.40;;;;;;5432590;26;20013;-80
2024/04/11 06:53:04;;;;;;;5.30;0.73;;;11.60;93.40;;;;;;5399308;26;20010;-81
2024/04/11 06:55:31;;;;;;;8.15;0.93;;;11.60;93.40;;;;;;5399362;26;20392;-80
2024/04/11 06:57:56;;;;;;;3.95;1.10;;;11.70;93.30;;;;;;5389812;26;20000;-80
2024/04/11 07:00:26;;;;;;;6.07;0.93;;;11.70;93.40;;;;;;5423692;26;20014;-79
2024/04/11 07:02:54;;;;;;;6.03;1.23;;;11.70;93.30;;;;;;5429455;26;20462;-80
2024/04/11 07:05:22;;;;;;;4.68;1.02;;;11.70;93.30;;;;;;5399133;26;21066;-81
2024/04/11 07:07:54;;;;;;;2.80;0.73;;;11.70;93.40;;;;;;5435714;26;20006;-80
2024/04/11 07:10:25;;;;;;;5.80;1.08;;;11.70;93.40;;;;;;5432437;26;20022;-80
2024/04/11 07:12:53;;;;;;;5.70;1.05;;;11.80;93.50;;;;;;5379346;26;20822;-81
2024/04/11 07:15:19;;;;;;;3.55;0.98;;;11.80;93.60;;;;;;5401995;26;20008;-78
2024/04/11 07:17:57;;;;;;;3.70;0.77;;;11.80;93.50;;;;;;5430181;26;19999;-78
2024/04/11 07:20:26;;;;;;;8.50;0.93;;;11.80;93.60;;;;;;5425935;26;20076;-79
2024/04/11 07:22:55;;;;;;;3.42;1.00;;;11.90;93.60;;;;;;5429276;26;20014;-80
2024/04/11 07:25:21;;;;;;;4.55;0.98;;;11.90;93.50;;;;;;5404497;26;20091;-79
2024/04/11 07:27:49;;;;;;;5.93;1.20;;;11.90;93.50;;;;;;5423643;26;20553;-80
2024/04/11 07:30:15;;;;;;;6.25;1.20;;;12.00;93.60;;;;;;5431687;26;20000;-80
2024/04/11 07:32:41;;;;;;;7.45;1.25;;;12.00;93.50;;;;;;5430560;26;20009;-80
2024/04/11 07:35:12;;;;;;;4.22;1.02;;;12.10;93.50;;;;;;5432998;26;20011;-80
2024/04/11 07:37:37;;;;;;;9.18;1.70;;;12.10;93.60;;;;;;5425292;26;20003;-80
2024/04/11 07:40:07;;;;;;;7.22;0.85;;;12.10;93.60;;;;;;5434921;26;20010;-80
2024/04/11 07:42:54;;;;;;;2.30;0.73;;;12.10;93.60;;;;;;5395086;26;20032;-80
2024/04/11 07:45:21;;;;;;;3.40;0.70;;;12.20;93.60;;;;;;5408252;26;19999;-80
2024/04/11 07:47:47;;;;;;;5.03;1.05;;;12.30;93.60;;;;;;5398227;26;20444;-80
2024/04/11 07:50:13;;;;;;;6.53;1.63;;;12.30;93.60;;;;;;5431408;26;20010;-80
2024/04/11 07:52:39;;;;;;;2.63;0.85;;;12.30;93.60;;;;;;5427937;26;20000;-80
2024/04/11 07:55:05;;;;;;;3.90;0.90;;;12.40;93.50;;;;;;5405487;26;20014;-80
2024/04/11 07:57:30;;;;;;;7.97;1.08;;;12.40;93.50;;;;;;5433069;26;20495;-79
2024/04/11 08:00:00;;;;;;;5.45;1.30;;;12.40;93.50;;;;;;5425130;26;20459;-79
2024/04/11 08:02:26;;;;;;;1.60;0.90;;;12.50;93.60;;;;;;5432174;26;20358;-79
2024/04/11 08:04:52;;;;;;;4.10;0.93;;;12.50;93.50;;;;;;5398923;26;20003;-80
2024/04/11 08:07:17;;;;;;;8.30;1.52;;;12.60;93.50;;;;;;5435050;26;20003;-80
2024/04/11 08:09:55;;;;;;;3.40;1.20;;;12.60;93.50;;;;;;5427796;26;20647;-80
2024/04/11 08:12:20;;;;;;;8.43;1.60;;;12.70;93.70;;;;;;5404526;26;19999;-81
2024/04/11 08:14:46;;;;;;;7.20;1.60;;;12.70;94.00;;;;;;5431826;26;20014;-80
2024/04/11 08:17:15;;;;;;;2.63;0.77;;;12.90;93.70;;;;;;5429516;26;20010;-81
2024/04/11 08:19:40;;;;;;;7.72;1.15;;;13.10;93.30;;;;;;5405439;26;20483;-80
2024/04/11 08:22:06;;;;;;;6.25;1.70;;;13.00;93.20;;;;;;5427027;26;20010;-80
2024/04/11 08:24:31;;;;;;;3.50;1.10;;;13.20;93.60;;;;;;5421326;26;19999;-80
2024/04/11 08:26:57;;;;;;;4.00;1.15;;;13.20;93.50;;;;;;5423448;26;19998;-80
2024/04/11 08:29:25;;;;;;;4.05;1.58;;;13.30;93.30;;;;;;5430911;26;20003;-80
2024/04/11 08:31:52;;;;;;;7.03;1.30;;;13.50;93.60;;;;;;5375411;26;20443;-80
2024/04/11 08:34:20;;;;;;;2.58;0.90;;;13.60;93.00;;;;;;5427342;26;20602;-80
2024/04/11 08:36:46;;;;;;;4.30;1.85;;;13.70;93.30;;;;;;5421456;26;20463;-80
2024/04/11 08:39:14;;;;;;;7.00;1.40;;;13.90;93.20;;;;;;5400644;26;19995;-80
2024/04/11 08:41:42;;;;;;;3.17;0.90;;;13.90;93.10;;;;;;5429520;26;20340;-81
2024/04/11 08:44:08;;;;;;;3.47;0.93;;;14.00;93.10;;;;;;5411638;26;20342;-80
2024/04/11 08:46:35;;;;;;;0.85;0.55;;;13.80;93.10;;;;;;5421723;26;20014;-80
2024/04/11 08:49:03;;;;;;;7.30;1.42;;;13.90;93.00;;;;;;5370100;26;20839;-79
2024/04/11 08:51:29;;;;;;;3.53;0.98;;;14.10;93.10;;;;;;5396214;26;20014;-79
2024/04/11 08:53:54;;;;;;;11.30;1.27;;;14.20;92.90;;;;;;5421034;26;20003;-79
2024/04/11 08:56:21;;;;;;;6.75;1.98;;;14.10;93.00;;;;;;5407763;26;20008;-79
2024/04/11 08:58:48;;;;;;;4.22;0.80;;;14.40;93.40;;;;;;5427083;26;20003;-80
2024/04/11 09:01:15;;;;;;;5.93;1.05;;;14.30;92.70;;;;;;5392838;26;20010;-79
2024/04/11 09:03:41;;;;;;;5.75;1.20;;;14.50;93.10;;;;;;5420001;26;19999;-81
2024/04/11 09:06:11;;;;;;;1.60;1.23;;;14.60;92.90;;;;;;5407177;26;20017;-79
2024/04/11 09:08:37;;;;;;;4.97;0.98;;;14.50;92.90;;;;;;5390986;26;20451;-79
2024/04/11 09:11:05;;;;;;;3.50;0.90;;;14.50;93.30;;;;;;5389201;26;20051;-79
2024/04/11 09:13:30;;;;;;;7.03;1.05;;;14.60;93.10;;;;;;5436374;26;20022;-79
2024/04/11 09:16:00;;;;;;;3.22;1.20;;;14.50;93.30;;;;;;5429308;26;20347;-79
2024/04/11 09:18:28;;;;;;;8.40;1.33;;;14.50;93.30;;;;;;5452260;26;20005;-79
2024/04/11 09:21:04;;;;;;;5.93;1.73;;;14.40;93.60;;;;;;5403033;26;20000;-80
2024/04/11 09:23:34;;;;;;;6.90;0.85;;;14.80;93.40;;;;;;5404504;26;20529;-79
2024/04/11 09:26:02;;;;;;;6.13;1.20;;;14.60;93.50;;;;;;5437435;26;20040;-81
2024/04/11 09:28:28;;;;;;;5.97;1.45;;;14.40;93.90;;;;;;5432203;26;20384;-79
2024/04/11 09:30:54;;;;;;;4.70;1.05;;;14.70;93.80;;;;;;5425679;26;19999;-81
2024/04/11 09:33:21;;;;;;;6.00;1.10;;;15.00;93.50;;;;;;5409599;26;19995;-79
2024/04/11 09:35:52;;;;;;;9.07;1.98;;;15.10;93.20;;;;;;5432080;26;20075;-80
2024/04/11 09:38:19;;;;;;;4.53;0.98;;;15.30;93.20;;;;;;5433511;26;20018;-81
2024/04/11 09:40:50;;;;;;;7.63;1.17;;;15.30;93.10;;;;;;5409764;26;20011;-79
2024/04/11 09:43:17;;;;;;;5.82;0.98;;;15.40;93.70;;;;;;5401181;26;19998;-80
2024/04/11 09:45:49;;;;;;;4.80;1.10;;;15.60;92.90;;;;;;5427964;26;20030;-79
2024/04/11 09:48:14;;;;;;;3.08;0.98;;;15.50;92.90;;;;;;5400470;26;20463;-80
2024/04/11 09:50:40;;;;;;;5.82;1.20;;;15.80;93.10;;;;;;5398191;26;20044;-80
2024/04/11 09:53:05;;;;;;;9.27;1.30;;;15.80;93.40;;;;;;5437849;26;20087;-79
2024/04/11 09:55:34;;;;;;;11.32;1.33;;;16.00;93.00;;;;;;5401096;26;20080;-80
2024/04/11 09:58:04;;;;;;;5.05;1.17;;;16.10;92.60;;;;;;5415876;26;19996;-80
2024/04/11 10:00:48;;;;;;;3.80;1.35;;;16.00;93.10;;;;;;5405260;26;20410;-80
2024/04/11 10:03:22;;;;;;;5.82;2.30;;;15.90;93.80;;;;;;5432406;26;19998;-81
2024/04/11 10:05:51;;;;;;;4.47;1.40;;;16.10;93.30;;;;;;5438870;26;20459;-80
2024/04/11 10:08:38;;;;;;;0.73;0.38;;;16.20;93.30;;;;;;5430392;26;20435;-81
2024/04/11 10:11:04;;;;;;;2.72;0.60;;;15.90;93.30;;;;;;5408422;26;20450;-80
2024/04/11 10:13:41;;;;;;;11.52;1.23;;;16.00;93.30;;;;;;5424270;26;20068;-80
2024/04/11 10:16:14;;;;;;;3.47;0.93;;;16.20;93.70;;;;;;5409950;26;20006;-79
2024/04/11 10:18:45;;;;;;;6.20;1.33;;;16.10;94.00;;;;;;5428080;26;20007;-79
2024/04/11 10:21:12;;;;;;;4.70;1.17;;;16.20;93.70;;;;;;5421530;26;20450;-80
2024/04/11 10:23:38;;;;;;;6.50;1.42;;;16.40;93.40;;;;;;5397034;26;20000;-79
2024/04/11 10:26:06;;;;;;;5.00;1.30;;;16.20;93.60;;;;;;5433588;26;20003;-80
2024/04/11 10:28:41;;;;;;;2.60;0.88;;;16.80;93.40;;;;;;5433463;26;20006;-80
2024/04/11 10:31:12;;;;;;;8.88;2.08;;;16.80;93.10;;;;;;5398428;26;20390;-80
2024/04/11 10:33:53;;;;;;;2.40;1.02;;;16.50;93.40;;;;;;5401951;26;20448;-79
2024/04/11 10:36:21;;;;;;;9.88;1.30;;;16.50;93.60;;;;;;5437936;26;20037;-81
2024/04/11 10:38:52;;;;;;;0.30;0.30;;;16.80;92.90;;;;;;5401905;26;19999;-80
2024/04/11 10:41:19;;;;;;;2.42;1.02;;;16.40;93.20;;;;;;5406736;26;20014;-79
2024/04/11 10:43:46;;;;;;;4.65;1.17;;;16.30;93.50;;;;;;5437484;26;20013;-80
2024/04/11 10:46:12;;;;;;;5.97;1.30;;;16.40;93.30;;;;;;5400006;26;20103;-80
2024/04/11 10:48:40;;;;;;;7.63;1.20;;;16.70;93.20;;;;;;5435009;26;20076;-80
2024/04/11 10:51:08;;;;;;;2.95;0.93;;;16.50;93.30;;;;;;5394883;26;20015;-80
2024/04/11 10:53:33;;;;;;;8.93;1.52;;;16.30;93.30;;;;;;5410673;26;20013;-79
2024/04/11 10:56:20;;;;;;;2.80;1.10;;;16.50;93.60;;;;;;5431003;26;19999;-79
2024/04/11 10:58:47;;;;;;;4.47;1.23;;;16.60;93.20;;;;;;5425861;26;20033;-79
2024/04/11 11:01:13;;;;;;;3.35;0.80;;;16.80;93.20;;;;;;5438572;26;20353;-79
2024/04/11 11:06:34;;;;;;;6.60;1.80;;;17.80;94.40;;;;;;5431516;26;20003;-80
2024/04/11 11:09:10;;;;;;;2.97;1.25;;;17.70;92.30;;;;;;5453903;26;20018;-78
2024/04/11 11:11:43;;;;;;;8.82;1.45;;;18.00;94.00;;;;;;5433986;26;20011;-79
2024/04/11 11:14:09;;;;;;;5.18;1.38;;;17.90;92.60;;;;;;5409266;26;20165;-79
2024/04/11 11:16:43;;;;;;;6.28;1.60;;;17.70;93.60;;;;;;5406256;26;20013;-80
2024/04/11 11:19:11;;;;;;;10.90;1.90;;;17.70;92.70;;;;;;5408140;26;20000;-80
2024/04/11 11:21:40;;;;;;;3.13;1.10;;;17.60;93.00;;;;;;5434432;26;20443;-79
2024/04/11 11:24:13;;;;;;;5.90;1.45;;;17.80;93.80;;;;;;5437564;26;20350;-78
2024/04/11 11:26:46;;;;;;;9.10;1.60;;;17.80;94.20;;;;;;5410868;26;20004;-79
2024/04/11 11:29:12;;;;;;;4.90;1.27;;;17.70;93.40;;;;;;5426898;26;20010;-79
2024/04/11 11:31:40;;;;;;;4.55;1.35;;;17.40;93.30;;;;;;5423150;26;19999;-79
2024/04/11 11:34:09;;;;;;;4.75;1.30;;;17.10;93.80;;;;;;5405845;26;20018;-79
2024/04/11 11:36:44;;;;;;;3.42;1.38;;;17.00;94.00;;;;;;5422610;26;20013;-79
2024/04/11 11:39:25;;;;;;;5.82;1.60;;;16.90;94.10;;;;;;5405363;26;20011;-79
2024/04/11 11:42:08;;;;;;;5.03;1.40;;;16.90;94.50;;;;;;5402161;26;20312;-79
2024/04/11 11:45:05;;;;;;;9.77;1.48;;;17.90;95.30;;;;;;5431205;26;19995;-79
2024/04/11 11:47:35;;;;;;;4.97;1.00;;;17.90;94.00;;;;;;5397404;26;20010;-78
2024/04/11 11:50:07;;;;;;;3.97;1.23;;;18.40;94.60;;;;;;5409464;26;20443;-79
2024/04/11 11:52:40;;;;;;;2.65;1.65;;;18.60;93.70;;;;;;5408394;26;20003;-78
2024/04/11 11:55:05;;;;;;;9.38;1.77;;;17.70;94.60;;;;;;5405714;26;20074;-79
2024/04/11 11:57:39;;;;;;;5.80;1.70;;;17.60;95.00;;;;;;5408489;26;20013;-79
2024/04/11 12:00:18;;;;;;;3.72;1.20;;;17.80;95.50;;;;;;5425488;26;20004;-79
2024/04/11 12:03:11;;;;;;;4.00;1.40;;;18.70;94.90;;;;;;5409668;26;20003;-79
2024/04/11 12:05:39;;;;;;;6.57;1.00;;;18.70;95.10;;;;;;5425788;26;19998;-79
2024/04/11 12:08:06;;;;;;;8.30;1.30;;;18.20;94.80;;;;;;5411292;26;20014;-78
2024/04/11 12:11:14;;;;;;;5.95;1.48;;;18.00;95.40;;;;;;5402228;26;20347;-79
2024/04/11 12:13:18;;;;;;;4.47;1.20;;;18.30;96.00;;;;;;5408539;26;19999;-79
2024/04/11 12:15:51;;;;;;;5.45;1.30;;;18.70;95.30;;;;;;5408329;26;20383;-79
2024/04/11 12:18:22;;;;;;;7.63;1.52;;;18.70;95.60;;;;;;5420177;26;20336;-80
2024/04/11 12:20:57;;;;;;;1.13;0.63;;;19.00;95.30;;;;;;5422212;26;20378;-80
2024/04/11 12:23:22;;;;;;;6.57;0.90;;;18.80;95.00;;;;;;5434068;26;20071;-80
2024/04/11 12:25:50;;;;;;;5.03;0.95;;;18.50;95.60;;;;;;5427533;26;20385;-80
2024/04/11 12:28:19;;;;;;;3.08;1.05;;;18.90;95.60;;;;;;5428846;26;20805;-80
2024/04/11 12:30:46;;;;;;;0.52;0.43;;;19.80;96.20;;;;;;5431336;26;19999;-79
2024/04/11 12:33:15;;;;;;;5.18;1.00;;;19.80;94.20;;;;;;5395380;26;20040;-80
2024/04/11 12:35:46;;;;;;;6.32;1.25;;;19.80;94.50;;;;;;5426140;26;20391;-80
2024/04/11 12:38:20;;;;;;;4.75;0.82;;;19.20;95.70;;;;;;5401249;26;20440;-80
2024/04/11 12:40:48;;;;;;;7.25;1.20;;;19.60;94.50;;;;;;5434949;26;20355;-80
2024/04/11 12:43:16;;;;;;;2.88;1.20;;;19.60;95.60;;;;;;5431857;26;20088;-80
2024/04/11 12:45:51;;;;;;;4.85;1.85;;;18.90;95.60;;;;;;5399701;26;19995;-80
2024/04/11 12:48:20;;;;;;;10.80;1.27;;;18.80;95.80;;;;;;5417334;26;20016;-80
2024/04/11 12:50:55;;;;;;;5.65;2.33;;;18.90;96.00;;;;;;5435692;26;20043;-80
2024/04/11 12:53:25;;;;;;;6.63;1.40;;;19.30;96.10;;;;;;5410485;26;19999;-80
2024/04/11 12:55:55;;;;;;;2.95;1.63;;;19.40;95.70;;;;;;5411454;26;20075;-80
2024/04/11 12:58:28;;;;;;;4.22;1.50;;;19.30;95.90;;;;;;5435671;26;20003;-80
2024/04/11 13:01:03;;;;;;;1.67;1.05;;;19.40;95.80;;;;;;5404589;26;20617;-80